Bluff Springs, Illinois
Current Conditions -  °F | °C
As of 4:35 AM on Thursday 27 Nov 2014 (Local Time) from KIJX Reporting Station
Haze Haze  
Wind Chill: 19°   Ceiling: 1800
Heat Index: 28°   Visibility: 5mi
Dew Point: 24°   Wind: 9mph
Humidity: 86%   Direction: 300°WNW
Pressure: 30.37"   Gusts: NA
Location:  39.99°N, 90.35°W
Report Text: KIJX 271035Z AUTO 30008KT 5SM BR SCT013 BKN018 OVC033 M02/M05 A3037 RMK AO2 T10251046
Loading
Personal Weather Stations






























Interactive Weather Map New forecast layout! Learn more

10-Day Weather Forecast

Advertisements
Track Severe Weather on mobile